createdAt,value
2022-12-11T00:00:27.439Z,2.60
2022-12-11T00:02:54.379Z,2.60
2022-12-11T00:05:21.217Z,2.60
2022-12-11T00:07:48.080Z,2.70
2022-12-11T00:10:14.929Z,2.60
2022-12-11T00:12:42.766Z,2.60
2022-12-11T00:15:10.596Z,2.60
2022-12-11T00:17:38.504Z,2.60
2022-12-11T00:20:06.145Z,2.60
2022-12-11T00:22:32.971Z,2.70
2022-12-11T00:24:59.782Z,2.60
2022-12-11T00:27:26.595Z,2.70
2022-12-11T00:29:53.406Z,2.70
2022-12-11T00:32:20.227Z,2.70
2022-12-11T00:34:47.018Z,2.70
2022-12-11T00:37:13.947Z,2.70
2022-12-11T00:39:40.818Z,2.70
2022-12-11T00:42:08.670Z,2.70
2022-12-11T00:44:36.007Z,2.80
2022-12-11T00:47:03.967Z,2.70
2022-12-11T00:49:30.934Z,2.70
2022-12-11T00:51:57.833Z,2.70
2022-12-11T00:54:24.625Z,2.80
2022-12-11T00:56:51.520Z,2.80
2022-12-11T00:59:18.362Z,2.80
2022-12-11T01:01:45.217Z,2.80
2022-12-11T01:04:12.026Z,2.80
2022-12-11T01:06:39.790Z,2.80
2022-12-11T01:09:24.897Z,2.80
2022-12-11T01:11:52.553Z,2.90
2022-12-11T01:14:19.823Z,2.80
2022-12-11T01:16:46.731Z,2.80
2022-12-11T01:19:13.682Z,2.70
2022-12-11T01:21:41.157Z,2.70
2022-12-11T01:24:08.073Z,2.80
2022-12-11T01:26:34.929Z,2.80
2022-12-11T01:29:02.117Z,2.80
2022-12-11T01:31:30.069Z,2.80
2022-12-11T01:33:56.951Z,2.80
2022-12-11T01:36:24.413Z,2.80
2022-12-11T01:38:53.474Z,2.80
2022-12-11T01:41:21.586Z,2.90
2022-12-11T01:44:06.471Z,2.80
2022-12-11T01:46:36.398Z,2.80
2022-12-11T01:49:09.202Z,2.90
2022-12-11T01:51:48.330Z,2.90
2022-12-11T01:54:18.900Z,2.90
2022-12-11T01:56:49.942Z,2.90
2022-12-11T01:59:24.048Z,2.90
2022-12-11T02:02:17.168Z,2.90
2022-12-11T02:04:46.198Z,2.90
2022-12-11T02:07:12.974Z,2.90
2022-12-11T02:09:43.786Z,2.90
2022-12-11T02:12:39.080Z,2.90
2022-12-11T02:15:51.477Z,3.00
2022-12-11T02:19:02.700Z,3.00
2022-12-11T02:21:41.079Z,2.90
2022-12-11T02:24:35.407Z,3.00
2022-12-11T02:27:35.822Z,3.10
2022-12-11T02:30:10.743Z,3.00
2022-12-11T02:32:49.339Z,3.00
2022-12-11T02:35:45.785Z,3.00
2022-12-11T02:38:27.190Z,3.00
2022-12-11T02:40:57.461Z,3.00
2022-12-11T02:43:25.477Z,3.00
2022-12-11T02:45:54.170Z,3.00
2022-12-11T02:48:24.734Z,3.10
2022-12-11T02:50:58.646Z,3.00
2022-12-11T02:53:30.805Z,3.00
2022-12-11T02:56:13.115Z,3.10
2022-12-11T02:58:58.692Z,3.10
2022-12-11T03:01:27.236Z,3.10
2022-12-11T03:03:56.081Z,3.00
2022-12-11T03:06:31.800Z,3.00
2022-12-11T03:08:58.842Z,3.00
2022-12-11T03:11:25.654Z,3.00
2022-12-11T03:13:53.998Z,2.90
2022-12-11T03:16:36.693Z,3.00
2022-12-11T03:19:35.870Z,3.00
2022-12-11T03:22:16.793Z,3.00
2022-12-11T03:24:53.005Z,3.10
2022-12-11T03:27:30.846Z,3.00
2022-12-11T03:30:05.199Z,3.00
2022-12-11T03:32:47.315Z,3.00
2022-12-11T03:35:27.975Z,3.00
2022-12-11T03:37:57.892Z,3.00
2022-12-11T03:40:27.799Z,3.00
2022-12-11T03:42:57.315Z,3.00
2022-12-11T03:45:27.907Z,3.00
2022-12-11T03:47:59.479Z,3.00
2022-12-11T03:50:31.758Z,3.00
2022-12-11T03:53:01.556Z,3.00
2022-12-11T03:55:32.332Z,3.00
2022-12-11T03:57:59.325Z,3.10
2022-12-11T04:00:26.310Z,3.10
2022-12-11T04:03:13.908Z,3.10
2022-12-11T04:05:50.700Z,3.10
2022-12-11T04:08:20.899Z,3.10
2022-12-11T04:10:48.998Z,3.10
2022-12-11T04:13:15.782Z,3.10
2022-12-11T04:15:42.715Z,3.10
2022-12-11T04:18:28.835Z,3.10
2022-12-11T04:21:15.423Z,3.10
2022-12-11T04:24:00.787Z,3.10
2022-12-11T04:26:27.939Z,3.10
2022-12-11T04:28:55.073Z,3.10
2022-12-11T04:31:23.229Z,3.00
2022-12-11T04:33:50.155Z,3.00
2022-12-11T04:36:17.545Z,3.00
2022-12-11T04:38:44.386Z,3.00
2022-12-11T04:41:14.862Z,2.90
2022-12-11T04:43:45.113Z,3.00
2022-12-11T04:46:15.976Z,3.00
2022-12-11T04:48:43.506Z,3.00
2022-12-11T04:51:10.782Z,2.90
2022-12-11T04:53:38.276Z,2.90
2022-12-11T04:56:10.766Z,2.90
2022-12-11T04:58:38.925Z,3.00
2022-12-11T05:01:19.345Z,3.10
2022-12-11T05:03:47.376Z,3.00
2022-12-11T05:06:15.479Z,3.00
2022-12-11T05:08:43.867Z,3.00
2022-12-11T05:11:14.851Z,2.90
2022-12-11T05:13:42.658Z,3.00
2022-12-11T05:16:14.336Z,3.00
2022-12-11T05:18:41.635Z,3.00
2022-12-11T05:21:12.045Z,3.00
2022-12-11T05:23:39.133Z,3.00
2022-12-11T05:26:13.943Z,3.00
2022-12-11T05:28:41.427Z,3.00
2022-12-11T05:31:17.813Z,3.00
2022-12-11T05:33:46.575Z,2.90
2022-12-11T05:36:24.806Z,3.00
2022-12-11T05:38:52.850Z,3.00
2022-12-11T05:41:23.861Z,2.90
2022-12-11T05:43:51.566Z,2.90
2022-12-11T05:46:28.394Z,2.90
2022-12-11T05:49:01.810Z,3.00
2022-12-11T05:51:31.093Z,3.00
2022-12-11T05:53:59.120Z,2.90
2022-12-11T05:56:33.387Z,2.90
2022-12-11T05:59:02.714Z,2.90
2022-12-11T06:01:38.986Z,2.90
2022-12-11T06:04:08.587Z,3.00
2022-12-11T06:06:36.157Z,2.90
2022-12-11T06:09:05.052Z,2.90
2022-12-11T06:11:33.719Z,2.90
2022-12-11T06:14:03.163Z,2.90
2022-12-11T06:16:30.740Z,2.90
2022-12-11T06:18:58.592Z,2.90
2022-12-11T06:21:32.479Z,3.00
2022-12-11T06:24:02.972Z,3.00
2022-12-11T06:26:32.028Z,2.90
2022-12-11T06:28:59.834Z,3.00
2022-12-11T06:31:27.252Z,2.90
2022-12-11T06:33:54.631Z,2.90
2022-12-11T06:36:24.229Z,2.90
2022-12-11T06:38:52.253Z,2.90
2022-12-11T06:41:19.471Z,2.90
2022-12-11T06:43:46.575Z,2.90
2022-12-11T06:46:19.993Z,2.90
2022-12-11T06:48:50.462Z,2.90
2022-12-11T06:51:21.548Z,2.90
2022-12-11T06:53:56.873Z,2.90
2022-12-11T06:56:24.798Z,2.90
2022-12-11T06:58:52.219Z,2.90
2022-12-11T07:01:25.589Z,2.90
2022-12-11T07:03:58.228Z,2.90
2022-12-11T07:06:28.274Z,2.90
2022-12-11T07:08:55.194Z,2.90
2022-12-11T07:11:22.755Z,2.90
2022-12-11T07:13:50.199Z,2.80
2022-12-11T07:16:18.658Z,2.90
2022-12-11T07:18:50.992Z,2.80
2022-12-11T07:21:19.578Z,2.90
2022-12-11T07:23:47.826Z,2.90
2022-12-11T07:26:20.005Z,2.80
2022-12-11T07:28:47.243Z,2.90
2022-12-11T07:31:22.992Z,2.80
2022-12-11T07:34:00.236Z,2.80
2022-12-11T07:36:30.138Z,2.90
2022-12-11T07:38:57.404Z,2.80
2022-12-11T07:41:24.767Z,2.90
2022-12-11T07:43:56.282Z,2.70
2022-12-11T07:46:26.980Z,2.80
2022-12-11T07:48:54.442Z,2.90
2022-12-11T07:51:29.198Z,2.80
2022-12-11T07:54:09.043Z,2.80
2022-12-11T07:56:35.876Z,2.80
2022-12-11T07:59:05.610Z,2.80
2022-12-11T08:01:36.361Z,2.70
2022-12-11T08:04:07.384Z,2.70
2022-12-11T08:06:37.987Z,2.70
2022-12-11T08:09:09.445Z,2.70
2022-12-11T08:11:36.495Z,2.70
2022-12-11T08:14:03.471Z,2.70
2022-12-11T08:16:30.353Z,2.80
2022-12-11T08:18:59.719Z,2.80
2022-12-11T08:21:28.371Z,2.80
2022-12-11T08:23:55.822Z,2.70
2022-12-11T08:26:29.789Z,2.80
2022-12-11T08:28:57.116Z,2.70
2022-12-11T08:31:25.411Z,2.80
2022-12-11T08:33:52.836Z,2.70
2022-12-11T08:36:22.850Z,2.80
2022-12-11T08:38:50.940Z,2.70
2022-12-11T08:41:28.142Z,2.80
2022-12-11T08:43:58.720Z,2.80
2022-12-11T08:46:30.725Z,2.80
2022-12-11T08:48:58.862Z,2.70
2022-12-11T08:51:28.755Z,2.70
2022-12-11T08:53:58.399Z,2.70
2022-12-11T08:56:26.830Z,2.70
2022-12-11T08:58:54.204Z,2.80
2022-12-11T09:01:27.638Z,2.80
2022-12-11T09:03:56.697Z,2.70
2022-12-11T09:06:26.923Z,2.80
2022-12-11T09:08:54.636Z,2.70
2022-12-11T09:11:26.096Z,2.80
2022-12-11T09:13:53.843Z,2.70
2022-12-11T09:16:23.798Z,2.80
2022-12-11T09:18:53.491Z,2.80
2022-12-11T09:21:24.566Z,2.90
2022-12-11T09:23:58.031Z,2.90
2022-12-11T09:26:27.053Z,2.90
2022-12-11T09:28:54.874Z,2.90
2022-12-11T09:31:32.411Z,2.90
2022-12-11T09:34:07.151Z,2.90
2022-12-11T09:36:34.992Z,3.00
2022-12-11T09:39:06.088Z,3.00
2022-12-11T09:42:02.579Z,3.00
2022-12-11T09:44:34.906Z,3.00
2022-12-11T09:47:01.956Z,3.00
2022-12-11T09:49:42.507Z,3.00
2022-12-11T09:52:47.623Z,3.10
2022-12-11T09:55:24.149Z,3.10
2022-12-11T09:58:54.814Z,3.10
2022-12-11T10:01:47.849Z,3.00
2022-12-11T10:04:43.066Z,3.10
2022-12-11T10:07:22.862Z,3.10
2022-12-11T10:10:02.273Z,3.10
2022-12-11T10:12:29.062Z,3.20
2022-12-11T10:15:18.691Z,3.20
2022-12-11T10:17:51.653Z,3.20
2022-12-11T10:20:34.951Z,3.20
2022-12-11T10:23:06.323Z,3.30
2022-12-11T10:25:39.873Z,3.30
2022-12-11T10:28:17.285Z,3.10
2022-12-11T10:31:14.776Z,3.30
2022-12-11T10:34:04.361Z,3.30
2022-12-11T10:36:36.449Z,3.30
2022-12-11T10:39:13.964Z,3.30
2022-12-11T10:41:45.190Z,3.40
2022-12-11T10:44:24.270Z,3.40
2022-12-11T10:47:11.306Z,3.40
2022-12-11T10:49:43.362Z,3.40
2022-12-11T10:52:44.598Z,3.40
2022-12-11T10:55:28.352Z,3.40
2022-12-11T10:58:03.634Z,3.40
2022-12-11T11:00:41.105Z,3.40
2022-12-11T11:03:29.318Z,3.50
2022-12-11T11:06:20.730Z,3.50
2022-12-11T11:08:55.225Z,3.40
2022-12-11T11:11:38.206Z,3.50
2022-12-11T11:14:05.328Z,3.50
2022-12-11T11:16:37.072Z,3.50
2022-12-11T11:19:05.248Z,3.50
2022-12-11T11:21:35.328Z,3.60
2022-12-11T11:24:03.550Z,3.50
2022-12-11T11:26:56.666Z,3.50
2022-12-11T11:29:34.239Z,3.60
2022-12-11T11:32:15.079Z,3.50
2022-12-11T11:34:42.060Z,3.50
2022-12-11T11:37:40.230Z,3.50
2022-12-11T11:40:13.062Z,3.50
2022-12-11T11:42:57.913Z,3.50
2022-12-11T11:45:40.495Z,3.50
2022-12-11T11:48:24.505Z,3.60
2022-12-11T11:50:53.790Z,3.70
2022-12-11T11:53:40.533Z,3.70
2022-12-11T11:56:36.244Z,3.70
2022-12-11T11:59:24.680Z,3.60
2022-12-11T12:01:56.938Z,3.60
2022-12-11T12:04:31.611Z,3.50
2022-12-11T12:07:10.072Z,3.70
2022-12-11T12:10:21.232Z,3.70
2022-12-11T12:13:03.960Z,3.70
2022-12-11T12:15:39.142Z,3.60
2022-12-11T12:18:25.465Z,3.70
2022-12-11T12:21:21.711Z,3.70
2022-12-11T12:24:19.321Z,3.80
2022-12-11T12:27:01.318Z,3.80
2022-12-11T12:29:58.366Z,3.80
2022-12-11T12:33:00.186Z,3.70
2022-12-11T12:35:38.452Z,3.70
2022-12-11T12:38:23.278Z,3.80
2022-12-11T12:41:23.617Z,3.70
2022-12-11T12:44:05.698Z,3.70
2022-12-11T12:46:51.850Z,3.70
2022-12-11T12:49:34.792Z,3.70
2022-12-11T12:52:05.012Z,3.70
2022-12-11T12:54:34.301Z,3.70
2022-12-11T12:57:04.268Z,3.70
2022-12-11T12:59:31.583Z,3.70
2022-12-11T13:02:04.498Z,3.70
2022-12-11T13:04:55.407Z,3.70
2022-12-11T13:07:30.303Z,3.70
2022-12-11T13:10:22.989Z,3.70
2022-12-11T13:12:50.931Z,3.70
2022-12-11T13:15:36.630Z,3.60
2022-12-11T13:18:33.928Z,3.70
2022-12-11T13:21:03.054Z,3.80
2022-12-11T13:23:34.919Z,3.70
2022-12-11T13:26:04.878Z,3.70
2022-12-11T13:28:37.613Z,3.70
2022-12-11T13:31:16.801Z,3.70
2022-12-11T13:33:52.308Z,3.70
2022-12-11T13:36:27.917Z,3.70
2022-12-11T13:39:25.171Z,3.70
2022-12-11T13:41:59.695Z,3.70
2022-12-11T13:44:32.827Z,3.60
2022-12-11T13:47:03.692Z,3.60
2022-12-11T13:49:38.018Z,3.70
2022-12-11T13:52:06.295Z,3.60
2022-12-11T13:54:38.648Z,3.70
2022-12-11T13:57:08.547Z,3.60
2022-12-11T13:59:47.038Z,3.60
2022-12-11T14:02:53.730Z,3.70
2022-12-11T14:05:21.501Z,3.60
2022-12-11T14:07:56.617Z,3.50
2022-12-11T14:10:31.455Z,3.60
2022-12-11T14:13:27.638Z,3.60
2022-12-11T14:15:55.216Z,3.60
2022-12-11T14:18:26.481Z,3.50
2022-12-11T14:21:02.027Z,3.60
2022-12-11T14:23:54.456Z,3.60
2022-12-11T14:26:34.305Z,3.60
2022-12-11T14:29:02.629Z,3.50
2022-12-11T14:31:38.186Z,3.50
2022-12-11T14:34:18.907Z,3.50
2022-12-11T14:36:48.176Z,3.50
2022-12-11T14:39:24.635Z,3.40
2022-12-11T14:42:10.491Z,3.50
2022-12-11T14:45:11.682Z,3.40
2022-12-11T14:47:43.549Z,3.50
2022-12-11T14:50:25.943Z,3.40
2022-12-11T14:53:03.134Z,3.40
2022-12-11T14:55:34.697Z,3.40
2022-12-11T14:58:22.416Z,3.40
2022-12-11T15:01:19.571Z,3.30
2022-12-11T15:03:46.776Z,3.30
2022-12-11T15:06:32.550Z,3.30
2022-12-11T15:09:36.269Z,3.30
2022-12-11T15:12:15.554Z,3.40
2022-12-11T15:14:58.074Z,3.40
2022-12-11T15:17:27.418Z,3.30
2022-12-11T15:20:07.322Z,3.30
2022-12-11T15:22:36.017Z,3.40
2022-12-11T15:25:03.722Z,3.30
2022-12-11T15:27:39.408Z,3.30
2022-12-11T15:30:26.823Z,3.30
2022-12-11T15:33:12.202Z,3.30
2022-12-11T15:35:52.164Z,3.30
2022-12-11T15:38:40.748Z,3.30
2022-12-11T15:41:16.422Z,3.30
2022-12-11T15:43:44.843Z,3.40
2022-12-11T15:46:11.842Z,3.40
2022-12-11T15:48:38.737Z,3.40
2022-12-11T15:51:06.023Z,3.40
2022-12-11T15:53:32.822Z,3.50
2022-12-11T15:56:00.264Z,3.70
2022-12-11T15:58:28.198Z,3.50
2022-12-11T16:00:55.745Z,3.40
2022-12-11T16:03:24.166Z,3.30
2022-12-11T16:05:52.926Z,3.30
2022-12-11T16:08:23.903Z,3.30
2022-12-11T16:10:54.752Z,3.40
2022-12-11T16:13:22.867Z,3.40
2022-12-11T16:15:53.601Z,3.40
2022-12-11T16:18:23.584Z,3.40
2022-12-11T16:20:52.162Z,3.30
2022-12-11T16:23:20.055Z,3.40
2022-12-11T16:25:48.099Z,3.40
2022-12-11T16:28:18.159Z,3.40
2022-12-11T16:30:45.574Z,3.30
2022-12-11T16:33:14.088Z,3.40
2022-12-11T16:35:42.860Z,3.40
2022-12-11T16:38:11.485Z,3.50
2022-12-11T16:40:38.511Z,3.40
2022-12-11T16:43:05.963Z,3.40
2022-12-11T16:45:33.849Z,3.30
2022-12-11T16:48:05.139Z,3.40
2022-12-11T16:50:32.422Z,3.30
2022-12-11T16:52:59.425Z,3.30
2022-12-11T16:55:26.418Z,3.30
2022-12-11T16:57:54.245Z,3.40
2022-12-11T17:00:21.085Z,3.40
2022-12-11T17:02:48.227Z,3.40
2022-12-11T17:05:15.401Z,3.30
2022-12-11T17:07:42.477Z,3.30
2022-12-11T17:10:09.706Z,3.30
2022-12-11T17:12:36.649Z,3.30
2022-12-11T17:15:03.899Z,3.30
2022-12-11T17:17:31.101Z,3.30
2022-12-11T17:19:58.002Z,3.30
2022-12-11T17:22:25.284Z,3.30
2022-12-11T17:24:52.242Z,3.30
2022-12-11T17:27:19.737Z,3.40
2022-12-11T17:29:49.406Z,3.40
2022-12-11T17:32:17.457Z,3.30
2022-12-11T17:34:45.930Z,3.30
2022-12-11T17:37:12.886Z,3.30
2022-12-11T17:39:39.876Z,3.20
2022-12-11T17:42:06.774Z,3.20
2022-12-11T17:44:33.618Z,3.20
2022-12-11T17:47:04.703Z,3.20
2022-12-11T17:49:34.426Z,3.20
2022-12-11T17:52:01.199Z,3.20
2022-12-11T17:54:28.088Z,3.20
2022-12-11T17:56:54.891Z,3.20
2022-12-11T17:59:21.682Z,3.20
2022-12-11T18:01:48.729Z,3.10
2022-12-11T18:04:15.645Z,3.20
2022-12-11T18:06:42.499Z,3.20
2022-12-11T18:09:10.241Z,3.20
2022-12-11T18:11:37.239Z,3.20
2022-12-11T18:14:04.071Z,3.20
2022-12-11T18:16:37.938Z,3.10
2022-12-11T18:19:08.275Z,3.10
2022-12-11T18:21:40.578Z,3.20
2022-12-11T18:24:09.075Z,3.20
2022-12-11T18:26:37.399Z,3.20
2022-12-11T18:29:05.332Z,3.10
2022-12-11T18:31:32.578Z,3.10
2022-12-11T18:34:00.106Z,3.10
2022-12-11T18:36:27.388Z,3.10
2022-12-11T18:38:54.346Z,3.10
2022-12-11T18:41:21.248Z,3.00
2022-12-11T18:43:48.313Z,3.00
2022-12-11T18:46:20.376Z,3.00
2022-12-11T18:48:48.533Z,3.00
2022-12-11T18:51:23.587Z,3.10
2022-12-11T18:53:52.065Z,3.00
2022-12-11T18:56:20.825Z,3.10
2022-12-11T18:58:51.182Z,3.00
2022-12-11T19:01:28.980Z,3.00
2022-12-11T19:04:04.556Z,2.80
2022-12-11T19:06:35.668Z,2.90
2022-12-11T19:09:05.556Z,2.90
2022-12-11T19:11:34.361Z,2.90
2022-12-11T19:14:01.463Z,2.90
2022-12-11T19:16:41.467Z,2.90
2022-12-11T19:19:20.966Z,2.90
2022-12-11T19:21:49.536Z,2.90
2022-12-11T19:24:20.776Z,2.80
2022-12-11T19:26:49.025Z,2.80
2022-12-11T19:29:27.234Z,2.80
2022-12-11T19:31:55.677Z,2.80
2022-12-11T19:34:24.760Z,2.70
2022-12-11T19:36:51.875Z,2.80
2022-12-11T19:39:19.706Z,2.70
2022-12-11T19:41:46.986Z,2.70
2022-12-11T19:44:14.080Z,2.70
2022-12-11T19:46:41.018Z,2.70
2022-12-11T19:49:08.394Z,2.50
2022-12-11T19:51:39.013Z,2.50
2022-12-11T19:54:11.385Z,2.60
2022-12-11T19:56:38.474Z,2.70
2022-12-11T19:59:08.813Z,2.70
2022-12-11T20:01:38.439Z,2.70
2022-12-11T20:04:10.430Z,2.60
2022-12-11T20:06:42.790Z,2.60
2022-12-11T20:09:11.928Z,2.60
2022-12-11T20:11:42.111Z,2.60
2022-12-11T20:14:16.516Z,2.60
2022-12-11T20:17:10.189Z,2.60
2022-12-11T20:19:31.577Z,2.60
2022-12-11T20:21:58.906Z,2.70
2022-12-11T20:24:26.105Z,2.70
2022-12-11T20:26:54.395Z,2.60
2022-12-11T20:29:21.357Z,2.60
2022-12-11T20:31:51.241Z,2.60
2022-12-11T20:34:19.877Z,2.60
2022-12-11T20:36:51.455Z,2.60
2022-12-11T20:39:18.273Z,2.50
2022-12-11T20:41:45.083Z,2.50
2022-12-11T20:44:11.874Z,2.60
2022-12-11T20:46:38.738Z,2.50
2022-12-11T20:49:12.534Z,2.60
2022-12-11T20:51:39.986Z,2.50
2022-12-11T20:54:06.970Z,2.50
2022-12-11T20:56:33.883Z,2.50
2022-12-11T20:59:01.100Z,2.60
2022-12-11T21:01:31.897Z,2.60
2022-12-11T21:03:59.956Z,2.50
2022-12-11T21:06:31.964Z,2.60
2022-12-11T21:09:01.872Z,2.60
2022-12-11T21:11:28.925Z,2.60
2022-12-11T21:13:56.094Z,2.60
2022-12-11T21:16:24.170Z,2.50
2022-12-11T21:18:51.896Z,2.60
2022-12-11T21:21:19.997Z,2.50
2022-12-11T21:23:46.822Z,2.50
2022-12-11T21:26:13.862Z,2.50
2022-12-11T21:28:41.054Z,2.50
2022-12-11T21:31:14.466Z,2.50
2022-12-11T21:33:41.634Z,2.60
2022-12-11T21:36:11.071Z,2.50
2022-12-11T21:38:39.418Z,2.50
2022-12-11T21:41:13.871Z,2.50
2022-12-11T21:44:03.198Z,2.50
2022-12-11T21:46:29.924Z,2.50
2022-12-11T21:48:56.713Z,2.50
2022-12-11T21:51:36.139Z,2.50
2022-12-11T21:54:06.614Z,2.50
2022-12-11T21:56:33.924Z,2.50
2022-12-11T21:59:01.559Z,2.50
2022-12-11T22:01:41.719Z,2.50
2022-12-11T22:04:11.284Z,2.50
2022-12-11T22:06:38.622Z,2.50
2022-12-11T22:09:05.746Z,2.50
2022-12-11T22:11:35.097Z,2.60
2022-12-11T22:14:02.786Z,2.60
2022-12-11T22:16:30.170Z,2.50
2022-12-11T22:18:57.130Z,2.50
2022-12-11T22:21:24.051Z,2.60
2022-12-11T22:23:51.476Z,2.60
2022-12-11T22:26:25.639Z,2.50
2022-12-11T22:28:52.954Z,2.50
2022-12-11T22:31:24.116Z,2.60
2022-12-11T22:33:55.878Z,2.60
2022-12-11T22:36:26.010Z,2.60
2022-12-11T22:38:53.535Z,2.60
2022-12-11T22:41:30.560Z,2.60
2022-12-11T22:43:58.905Z,2.60
2022-12-11T22:46:30.682Z,2.60
2022-12-11T22:48:58.987Z,2.60
2022-12-11T22:51:26.076Z,2.50
2022-12-11T22:53:52.929Z,2.60
2022-12-11T22:56:19.834Z,2.60
2022-12-11T22:58:46.892Z,2.60
2022-12-11T23:01:19.712Z,2.50
2022-12-11T23:03:48.205Z,2.50
2022-12-11T23:06:23.689Z,2.50
2022-12-11T23:08:52.161Z,2.50
2022-12-11T23:11:27.647Z,2.60
2022-12-11T23:13:55.187Z,2.50
2022-12-11T23:16:24.970Z,2.40
2022-12-11T23:18:52.958Z,2.50
2022-12-11T23:21:20.147Z,2.50
2022-12-11T23:23:47.523Z,2.50
2022-12-11T23:26:18.518Z,2.50
2022-12-11T23:28:46.954Z,2.50
2022-12-11T23:31:14.759Z,2.50
2022-12-11T23:33:42.264Z,2.40
2022-12-11T23:36:09.796Z,2.50
2022-12-11T23:38:37.481Z,2.50
2022-12-11T23:41:08.622Z,2.40
2022-12-11T23:43:36.774Z,2.40
2022-12-11T23:46:22.399Z,2.50
2022-12-11T23:48:50.491Z,2.60
2022-12-11T23:51:20.239Z,2.50
2022-12-11T23:53:47.722Z,2.50
2022-12-11T23:56:23.314Z,2.50
2022-12-11T23:58:51.140Z,2.40
